5MA2 weather

Fuller House Heliport
East Falmouth, Massachusetts, United States

Public forecast

Using degrees Fahrenheit for public forecast. Weather courtesy of forecast.io.

METAR (pilot weather report)

Closest report is Cape Cod Coast Guard Air Station, 6.5 nm (12.0 km) NNE. Retrieved 2019/07/19 00:35 UTC (5 minutes ago):

KFMH 190035Z 32005G11KT 3SM -DZ BKN004 BKN008 OVC012 19/19 A2994 RMK AO2

TAF (pilot weather forecast)

Forecast is more than 12 hours old.

Closest forecast is Cape Cod Coast Guard Air Station, 6.5 nm (12.0 km) NNE. Retrieved 2019/07/18 00:36 UTC (1 day ago):

TAF KFMH 182333Z 1900/1924 05005KT 1 1/2SM -SHRA BR OVC003 FM190600 01003KT 2SM BR OVC003 FM191100 36004KT 2SM BR OVC003 FM191400 01004KT P6SM BKN008 FM191600 29004KT P6SM BKN035 FM192100 22011G19KT P6SM FEW060